Aviation Digital Data Service (ADDS)

Output produced by METARs form (1428 UTC 02 October 2014)
found at http://aviationweather.gov/adds/metars/
 
KLAS 021149Z 0212/0312 35006KT P6SM SKC 
     FM021700 05009KT P6SM SKC 
     FM030300 21006KT P6SM SKC